Terminal Aerodrome Forecast
Issued by NWS State College, PA

Home | Current Version | Previous Version | Text Only | Print | Product List | Glossary On
Versions: 1 2 3 4 5 6 7 8 9 10 11 12 13 14 15 16 17 18 19 20 21 22 23 24 25 26 27 28 29 30 31 32 33 34 35 36 37 38 39 40 41 42 43 44 45 46 47 48 49 50
417
FTUS41 KCTP 280400 AAA
TAFIPT
TAF AMD
KIPT 280400Z 2804/2824 10003KT P6SM BKN070
     FM280600 VRB03KT P6SM VCSH OVC025
     FM280900 VRB03KT 1SM -SHRA BR OVC007
     FM282000 33005KT 4SM -SHRA BR OVC020=

USA.gov is the U.S. government's official web portal to all federal, state and local government web resources and services.